Deridder, Beauregard Regional Airport (KDRI)

NameBeauregard Regional Airport
CityDeridder
CountryUnited States
ICAOKDRI
IATADRI
Altitude62 m
CoordinatesGoogle Map
Live Air TrafficLiveATC.net
METARKDRI 180055Z AUTO 00000KT 10SM CLR 16/14 A3011 RMK AO2 T01570142
2019-01-18 00:55:00 Wind: North (0°) 0 m/s - Visibility: 16093.4 m - Temperature: 16 °C - Dew point: 14 °C - Humidity: 88% - Pressure: 1019.64 hPa
Statistics

The table below shows the detailed information of all flights to/from Deridder, Beauregard Regional Airport (KDRI).